Portada
METAR-TAF:

METAR-TAF

Aeroports :

Sydney, Austràlia

latitud: 33-57S, longitud: 151-11E, altitud: 6 m

Observació

L'informe es va fer fa 33 minuts, a les 17:30 UTC
Vent 9 kt del Nord-Oest
Temperatura 8°C
Humitat 61%
Pressió 1015 hPa
Visibilitat 10 km o més

METAR: YSSY 181730Z AUTO 31009KT 9999 // NCD 08/01 Q1015 RF00.0/000.0

Hora: 04:03 (18:03 UTC)

Pronòstic

L'informe es va fer fa 3 hores i 58 minuts, a les 14:05 UTC
Pronòstic vàlid del 18 a les 15 UTC al 19 a les 18 UTC
Vent 12 kt del Oest/Nord-Oest
Visibilitat 10 km o més
sense núvols per sota de 1500 mi sense presència de cumulonimbus.

TAF: YSSY 181405Z 1815/1918 29012KT CAVOK

Observacions i pronòstics meteorològics de més de 4000 aeroports (METAR i TAF).

Les estacions disponibles són els punts grocs i vermells al mapa.

Posi el ratolí al punt desitjat per veure el nom de l'estació.

Feu clic per veure les observacions i els pronòstics meteorològics.

Per canviar el mapa: feu clic els botons verds amb una creu de color negre per apropar; al botó verd amb un guió per allunyar la imatge; o en les fletxes verdes per a mapes adjacents.


METAR-TAF: